Date,TemperatureHighF,TemperatureAvgF,TemperatureLowF,DewpointHighF,DewpointAvgF,DewpointLowF,HumidityHigh,HumidityAvg,HumidityLow,PressureMaxIn,PressureMinIn,WindSpeedMaxMPH,WindSpeedAvgMPH,GustSpeedMaxMPH,PrecipitationSumIn
2013-1-1,42.7,39.6,36.2,39.6,37.1,34.4,93,91,87,30.12,29.52,32,15,33,0.00
2013-1-2,53.2,49.9,42.5,51.8,48.6,39.8,98,95,90,30.31,30.08,31,14,36,0.00
2013-1-3,55.2,52.3,49.3,52.8,50.8,47.5,98,94,90,30.55,30.30,24,10,26,0.00
2013-1-4,50.3,48.0,45.7,48.2,46.5,44.1,100,94,90,30.59,30.47,19,5,21,0.00
2013-1-5,52.1,48.7,46.1,51.0,47.9,44.2,100,97,89,30.48,30.38,18,6,23,0.00
2013-1-6,49.9,47.4,45.2,48.5,47.0,44.7,100,98,93,30.48,30.24,18,7,22,0.00
2013-1-7,50.5,48.6,46.8,50.5,48.5,46.8,100,100,99,30.24,30.04,23,9,24,0.06
2013-1-8,51.3,47.1,41.5,51.3,45.8,39.1,100,95,88,30.28,30.03,24,7,24,0.00
2013-1-9,47.1,41.5,39.1,41.6,38.9,37.1,95,91,78,30.27,30.09,17,5,18,0.00
2013-1-10,44.1,42.1,39.7,43.6,40.3,37.5,99,94,86,30.09,29.95,20,6,23,0.07
2013-1-11,46.1,42.9,39.2,45.8,41.4,36.0,100,95,87,30.08,29.81,15,6,18,0.01
2013-1-12,46.0,42.9,40.2,45.5,40.0,33.3,99,90,77,30.10,29.78,25,12,26,0.00
2013-1-13,40.3,37.9,35.6,37.6,34.7,31.0,100,89,72,30.20,30.10,20,8,21,0.04
2013-1-14,41.1,38.8,34.9,40.3,37.2,33.5,100,94,84,30.13,29.89,28,12,31,0.02
2013-1-15,41.6,36.9,33.9,38.6,34.8,32.1,95,92,84,29.96,29.78,21,8,22,0.00
2013-1-16,41.5,40.0,39.1,41.5,38.1,35.7,100,93,86,29.91,29.76,24,10,27,0.13
2013-1-17,44.5,42.6,40.7,44.5,42.5,39.4,100,100,95,29.91,29.55,39,15,44,0.11
2013-1-18,40.8,36.5,34.3,39.4,36.3,34.3,100,99,94,29.55,29.26,36,1,42,12.23
2013-1-19,37.6,35.7,34.1,37.6,34.1,30.1,100,94,80,29.62,29.32,24,5,24,0.20
2013-1-20,37.1,36.3,35.5,32.4,30.9,28.0,86,80,72,29.61,29.40,25,13,29,0.00
2013-1-21,37.8,35.3,32.1,36.7,33.7,31.1,100,94,79,29.41,29.34,22,7,24,0.11
2013-1-22,37.6,33.9,31.2,36.8,33.3,29.7,100,98,90,29.79,29.39,16,3,16,0.05
2013-1-23,38.9,37.7,36.7,36.6,34.2,32.5,94,87,82,29.88,29.75,21,7,22,0.00
2013-1-24,41.4,39.0,36.9,40.1,36.6,33.2,95,91,86,30.05,29.88,25,6,28,0.00
2013-1-25,45.4,42.8,41.0,45.4,42.3,38.2,100,98,88,29.96,29.35,32,13,36,0.78
2013-1-26,50.6,43.2,37.3,50.2,41.5,35.2,100,94,87,29.73,28.98,29,10,33,0.02
2013-1-27,51.9,41.0,37.3,51.0,38.0,34.4,98,89,79,29.45,28.96,46,17,46,0.09
2013-1-28,50.7,44.1,37.6,46.2,40.0,34.4,97,85,75,29.55,29.08,45,18,49,0.15
2013-1-29,56.7,47.8,43.7,53.2,45.0,41.3,100,90,83,29.45,29.10,44,14,50,0.04
2013-1-30,47.9,44.6,40.9,43.4,40.2,36.5,92,85,71,29.84,29.32,50,18,52,0.19
2013-1-31,47.3,43.8,40.6,44.3,39.6,37.3,94,85,75,29.75,29.52,43,19,43,0.24
2013-2-1,43.4,40.9,35.7,41.8,37.3,31.6,95,87,81,29.91,29.42,40,16,42,0.02
2013-2-2,42.4,37.9,34.3,37.9,33.3,31.5,91,84,71,30.33,29.91,18,7,19,0.00
2013-2-3,50.0,46.8,40.4,48.2,45.6,37.9,100,96,84,30.22,29.82,33,16,35,0.08
2013-2-4,48.7,42.3,33.5,48.4,38.2,31.4,99,85,75,29.92,29.67,41,21,46,0.09
2013-2-5,43.8,37.2,32.2,40.1,34.3,29.7,96,89,79,29.74,29.43,49,21,49,0.02
2013-2-6,42.0,38.6,34.4,36.2,33.4,31.3,91,81,69,30.30,29.74,33,14,33,0.00
2013-2-7,41.9,36.5,32.8,41.6,35.4,31.3,99,95,89,30.31,29.95,24,10,24,0.17
2013-2-8,45.1,41.2,38.5,43.4,39.3,36.3,98,93,88,30.33,30.22,21,10,25,0.00
2013-2-9,45.7,42.5,40.4,45.3,42.3,39.9,100,99,98,30.25,30.07,21,12,23,0.09
2013-2-10,41.9,40.4,39.5,41.9,40.4,39.4,100,100,100,29.24,29.19,17,7,18,0.83
2013-2-11,40.5,38.3,37.4,40.5,37.3,35.2,100,96,89,29.77,29.24,19,8,22,0.06
2013-2-12,40.4,38.5,37.2,39.8,37.6,36.3,98,96,94,30.04,29.98,21,9,25,0.06
2013-2-13,51.4,44.9,40.4,51.2,44.7,39.9,100,99,96,30.01,29.66,26,10,27,0.24
2013-2-14,48.0,44.4,40.5,46.9,41.5,38.6,97,90,79,30.06,29.69,29,13,29,0.01
2013-2-15,46.7,42.4,38.3,42.7,40.5,37.6,98,93,82,30.17,30.06,20,6,21,0.00
2013-2-16,46.7,44.4,41.9,46.7,44.1,40.8,100,99,95,30.14,30.06,24,9,26,0.00
2013-2-17,45.1,43.9,42.8,43.5,41.3,35.8,98,90,76,30.07,29.98,26,13,29,0.00
2013-2-18,43.7,42.3,40.5,41.0,38.1,35.5,95,85,78,30.12,30.00,27,11,28,0.00
2013-2-19,43.8,41.1,39.2,40.4,39.1,37.9,98,93,86,30.13,30.07,14,6,14,0.00
2013-2-20,43.6,41.0,38.3,40.9,38.3,33.4,99,90,82,30.20,30.08,28,12,29,0.01
2013-2-21,38.3,35.8,34.5,33.9,30.6,28.3,86,81,76,30.24,30.18,27,14,30,0.00
2013-2-22,36.0,34.6,32.9,30.4,27.8,25.4,81,76,72,30.30,30.21,19,9,22,0.00
2013-2-23,38.2,35.7,33.8,33.2,29.9,25.3,94,80,65,30.38,30.29,21,7,22,0.02
2013-2-24,39.2,37.0,34.4,34.6,31.3,27.3,96,80,68,30.51,30.37,19,5,21,0.03
2013-2-25,41.7,38.7,34.4,38.2,34.7,31.1,95,85,77,30.62,30.50,14,5,15,0.04
2013-2-26,41.2,40.5,39.2,39.7,38.0,36.2,96,91,84,30.71,30.58,16,6,18,0.00
2013-2-27,41.4,39.8,37.8,40.5,37.6,35.9,98,92,87,30.73,30.66,16,7,17,0.00
2013-2-28,43.0,40.1,35.8,42.9,39.2,35.1,100,96,94,30.66,30.54,18,7,18,0.00
2013-3-1,44.4,42.2,38.8,42.7,39.6,35.5,100,91,81,30.57,30.52,14,4,15,0.00
2013-3-2,43.9,40.2,35.9,38.8,36.2,33.2,95,86,77,30.52,30.33,10,3,11,0.00
2013-3-3,44.0,41.3,38.7,40.1,37.8,35.9,92,87,83,30.33,30.07,20,4,20,0.00
2013-3-4,41.1,39.5,36.9,37.7,36.0,34.7,94,87,81,30.07,29.75,21,8,21,0.00
2013-3-5,44.7,40.7,36.3,42.1,39.2,35.0,97,94,88,29.75,29.58,14,5,15,0.00
2013-3-6,44.9,43.5,42.6,44.7,43.2,41.3,100,99,94,29.58,29.46,13,6,15,0.12
2013-3-7,44.6,43.8,43.1,44.6,43.8,43.1,100,100,100,29.47,29.29,24,11,27,0.19
2013-3-8,45.9,44.6,43.3,45.9,44.6,43.3,100,100,100,29.51,29.28,23,10,25,0.14
2013-3-9,43.6,41.5,38.9,43.6,41.5,38.3,100,100,98,29.72,29.50,30,12,33,0.02
2013-3-10,39.0,37.3,33.2,38.3,31.9,21.0,98,81,59,29.98,29.72,39,22,44,0.02
2013-3-11,33.9,32.3,27.9,28.1,23.2,19.8,93,69,57,30.13,29.97,39,21,42,0.20
2013-3-12,38.7,35.3,32.1,32.7,27.9,19.3,91,74,58,30.14,30.01,29,11,31,0.00
2013-3-13,42.0,36.4,32.1,37.6,33.3,30.1,95,89,75,30.11,29.99,19,8,23,0.02
2013-3-14,45.8,38.4,30.7,41.0,35.3,28.7,94,89,80,30.12,29.75,25,10,25,0.00
2013-3-15,47.0,42.9,40.3,40.5,38.8,35.8,92,85,72,29.75,29.42,24,9,38,0.03
2013-3-16,41.5,38.7,35.2,39.0,36.1,33.2,97,91,80,29.33,29.28,16,6,17,0.02
2013-3-17,38.7,35.6,32.9,38.4,34.6,31.9,99,96,91,29.30,29.12,19,8,22,0.19
2013-3-18,42.2,38.7,35.7,39.3,36.8,33.2,98,93,83,29.45,29.17,25,10,29,0.04
2013-3-19,37.5,35.7,33.0,36.9,34.5,31.9,99,95,85,29.54,29.44,23,7,24,0.41
2013-3-20,41.7,37.8,34.7,40.7,37.0,34.3,100,97,92,29.93,29.54,22,6,25,0.06
2013-3-21,41.2,39.7,38.2,38.6,36.6,34.7,98,89,83,29.93,29.60,42,21,46,0.43
2013-3-22,41.0,39.6,36.8,40.4,38.7,36.0,99,97,93,29.72,29.52,41,20,48,1.58
2013-3-23,38.0,36.6,34.9,37.0,35.3,32.2,99,95,89,29.97,29.72,28,16,30,0.05
2013-3-24,35.9,34.5,33.4,32.5,30.1,27.4,90,84,76,30.11,29.96,37,22,39,0.00
2013-3-25,37.6,35.7,33.8,30.5,28.5,26.3,81,75,69,30.15,30.11,37,22,37,0.00
2013-3-26,36.1,34.4,32.1,31.7,29.0,25.7,92,80,71,30.15,30.07,30,16,33,0.00
2013-3-27,36.4,33.8,30.8,32.4,30.4,25.6,100,87,71,30.08,30.03,31,12,31,0.02
2013-3-28,38.3,34.8,31.6,31.6,29.8,27.3,93,82,72,30.06,30.00,26,11,26,0.01
2013-3-29,38.4,36.5,34.2,30.4,27.7,25.5,76,70,64,29.92,29.86,22,12,25,0.00
2013-3-30,39.4,37.2,34.3,31.2,27.9,24.8,77,69,60,30.00,29.90,23,11,24,0.00
2013-3-31,39.9,38.3,37.0,32.1,30.2,27.1,80,72,64,29.98,29.87,32,15,33,0.00
2013-4-1,38.8,37.0,35.2,31.7,29.6,27.8,80,74,69,29.99,29.86,29,15,31,0.00
2013-4-2,41.1,37.9,33.9,35.2,30.8,27.9,81,76,67,30.19,29.98,25,12,28,0.00
2013-4-3,41.8,39.5,35.9,36.3,33.3,29.7,86,79,69,30.26,30.19,24,13,25,0.00
2013-4-4,42.0,40.0,37.5,35.6,32.9,28.8,81,75,65,30.24,30.21,25,12,27,0.00
2013-4-5,41.8,39.9,38.4,36.9,33.9,31.0,89,79,68,30.32,30.20,22,11,24,0.00
2013-4-6,43.2,39.0,33.1,35.5,33.4,29.5,89,81,69,30.38,30.26,17,5,18,0.00
2013-4-7,42.9,39.9,35.0,39.2,36.0,31.4,94,86,76,30.26,29.84,22,8,24,0.00
2013-4-8,43.4,41.4,39.8,38.3,36.6,33.8,89,83,76,29.84,29.51,33,17,36,0.00
2013-4-9,43.4,39.8,36.7,39.6,36.5,34.0,91,88,82,29.63,29.48,33,15,35,0.00
2013-4-10,44.3,42.0,40.2,43.2,40.9,38.6,98,96,90,29.64,29.47,17,8,17,0.01
2013-4-11,44.5,42.8,41.6,44.5,42.3,41.0,100,98,93,29.47,29.26,19,8,24,0.41
2013-4-12,50.1,44.1,40.2,45.0,42.2,40.2,100,93,77,29.69,29.27,19,5,19,0.02
2013-4-13,46.7,43.8,41.2,46.6,43.5,40.6,100,99,94,29.71,29.41,33,10,33,0.07
2013-4-14,54.0,49.4,46.0,52.6,47.8,46.0,100,95,82,29.58,29.41,30,9,30,0.09
2013-4-15,58.4,51.1,46.0,47.3,45.8,43.3,99,82,59,29.81,29.57,25,9,30,0.00
2013-4-16,55.3,51.0,46.2,39.2,35.7,33.3,76,56,46,29.92,29.86,24,7,24,0.02
2013-4-17,53.2,48.1,44.8,52.7,46.2,39.2,100,93,77,29.90,29.21,38,12,45,0.03
2013-4-18,51.4,46.7,43.2,44.9,42.6,40.5,94,86,71,30.11,29.29,42,19,45,0.40
2013-4-19,49.9,44.3,38.6,43.5,40.4,37.3,97,87,67,30.51,30.11,21,9,23,0.00
2013-4-20,49.7,46.6,43.2,45.9,42.8,39.0,97,87,75,30.51,30.24,19,6,23,0.00
2013-4-21,53.3,47.6,43.5,45.2,42.0,39.7,93,81,64,30.24,29.96,27,8,30,0.01
2013-4-22,58.4,49.6,44.0,52.8,45.9,40.3,96,87,74,29.98,29.82,32,13,33,0.01
2013-4-23,61.1,52.6,46.2,50.7,47.6,43.5,96,84,66,30.14,29.94,25,11,26,0.00
2013-4-24,55.7,49.9,43.7,53.2,48.2,42.8,99,94,86,30.27,30.02,28,7,28,0.09
2013-4-25,53.2,46.3,42.9,46.3,42.9,37.8,100,89,65,30.25,30.11,24,6,28,0.17
2013-4-26,48.1,42.6,36.4,39.6,36.9,34.4,94,81,66,30.19,30.05,26,12,31,0.19
2013-4-27,46.1,43.1,39.5,40.6,38.2,35.5,91,83,75,30.23,30.09,22,9,23,0.00
2013-4-28,53.3,46.4,41.2,46.9,40.9,36.7,94,81,64,30.15,29.84,28,12,32,0.09
2013-4-29,54.4,45.6,39.1,44.5,38.4,34.4,91,77,54,30.27,29.90,31,14,33,0.03
2013-4-30,48.1,43.9,38.1,41.7,39.0,36.0,92,83,69,30.39,30.27,15,6,17,0.00
2013-5-1,55.7,48.0,42.9,47.8,42.9,38.2,92,83,65,30.33,30.27,21,6,23,0.01
2013-5-2,54.6,48.0,43.1,47.8,44.9,40.8,100,89,72,30.33,30.15,19,6,20,0.00
2013-5-3,57.7,52.7,48.0,50.5,47.3,45.3,96,82,72,30.15,29.85,29,8,33,0.06
2013-5-4,58.1,50.8,45.5,50.8,44.5,40.6,96,80,60,30.01,29.81,28,12,31,0.01
2013-5-5,60.7,54.7,49.9,52.6,50.1,46.5,93,85,73,30.09,30.00,19,6,22,0.00
2013-5-6,52.3,49.9,47.9,50.1,48.0,46.1,98,93,88,30.08,30.01,20,7,23,0.02
2013-5-7,55.9,50.9,46.5,50.5,47.6,45.6,99,89,76,30.05,29.68,16,7,16,0.02
2013-5-8,57.6,50.8,46.2,53.2,47.5,40.3,100,89,70,29.68,29.28,30,12,34,0.22
2013-5-9,53.4,47.6,44.9,48.7,44.2,40.5,98,88,77,29.55,29.18,37,15,39,0.16
2013-5-10,56.7,49.3,44.5,51.5,44.1,36.2,98,83,52,29.72,29.55,34,13,35,0.14
2013-5-11,50.8,46.5,43.6,46.3,42.0,39.3,97,85,67,29.97,29.67,30,13,34,0.35
2013-5-12,56.0,48.8,42.0,51.6,45.6,39.1,98,89,79,29.98,29.78,33,12,36,0.08
2013-5-13,50.1,45.3,41.9,42.2,39.3,37.3,90,80,64,29.85,29.72,36,16,39,0.09
2013-5-14,52.2,45.1,40.6,43.8,40.1,36.8,93,83,58,29.73,29.37,28,10,29,0.00
2013-5-15,51.2,45.2,41.1,44.0,40.6,37.1,94,84,67,29.54,29.40,28,13,33,0.43
2013-5-16,48.2,43.8,39.4,43.9,40.3,36.0,94,87,79,29.64,29.48,14,6,15,0.09
2013-5-17,51.4,47.2,43.1,47.9,43.6,40.3,99,88,69,29.93,29.64,19,7,20,0.00
2013-5-18,51.0,47.9,44.7,48.2,44.6,40.3,98,88,76,29.92,29.72,19,8,21,0.01
2013-5-19,55.2,51.0,47.3,49.5,47.1,44.0,98,87,73,30.05,29.78,13,3,13,0.00
2013-5-20,58.2,53.6,49.5,54.6,51.0,47.0,96,91,81,30.12,30.01,21,9,24,0.00
2013-5-21,59.9,51.5,46.2,50.7,47.1,44.0,94,85,71,30.20,30.11,21,8,25,0.01
2013-5-22,54.4,50.0,45.8,49.3,43.1,38.5,98,78,59,30.26,30.19,24,11,29,0.03
2013-5-23,49.1,44.5,40.2,42.4,38.6,35.7,92,80,61,30.20,30.09,30,14,36,1.01
2013-5-24,52.0,46.7,41.4,43.9,40.6,37.1,92,80,69,30.24,30.03,30,12,31,0.42
2013-5-25,51.7,48.6,45.1,46.6,44.2,41.9,90,85,79,30.25,30.21,17,4,22,0.00
2013-5-26,55.4,52.6,49.5,50.2,49.0,47.2,92,87,78,30.11,29.78,18,7,22,0.00
2013-5-27,52.6,49.1,47.0,49.5,47.3,44.4,100,94,81,29.78,29.43,21,8,25,0.32
2013-5-28,51.2,48.1,43.6,48.6,45.7,42.0,99,91,85,29.66,29.49,24,7,25,0.10
2013-5-29,59.5,51.5,47.6,51.4,48.0,45.4,100,88,70,29.98,29.65,28,12,28,0.18
2013-5-30,63.6,56.3,49.1,52.1,48.2,44.6,86,75,62,30.14,29.97,25,11,26,0.04
2013-5-31,58.9,53.2,47.3,53.9,48.7,40.9,93,85,70,30.30,30.13,16,7,18,0.00
2013-6-1,58.0,51.7,45.0,50.5,45.7,39.7,91,80,72,30.42,30.29,20,7,21,0.00
2013-6-2,55.7,50.6,48.9,50.4,45.9,42.6,93,84,76,30.46,30.40,13,5,14,0.00